Time,TemperatureF,DewpointF,PressureIn,WindDirection,WindDirectionDegrees,WindSpeedMPH,WindSpeedGustMPH,Humidity,HourlyPrecipIn,Conditions,Clouds,dailyrainin,SolarRadiationWatts/m^2,SoftwareType,DateUTC
2013-07-31 00:02:00,62.0,60.0,-100.00,South,188,3.0,8.0,93,0.00,,,0.05,1.000000,,2013-07-31 05:02:00,
2013-07-31 00:11:00,62.0,60.0,-100.00,South,188,3.0,8.0,93,0.00,,,0.05,1.000000,,2013-07-31 05:11:00,
2013-07-31 00:32:00,62.0,61.0,-100.00,South,177,2.0,7.0,95,0.00,,,0.05,0.000000,,2013-07-31 05:32:00,
2013-07-31 00:43:00,62.0,61.0,-100.00,South,177,2.0,7.0,95,0.00,,,0.05,0.000000,,2013-07-31 05:43:00,
2013-07-31 00:52:00,62.0,61.0,-100.00,South,177,2.0,7.0,95,0.00,,,0.05,0.000000,,2013-07-31 05:52:00,
2013-07-31 01:02:00,62.0,61.0,-100.00,South,177,2.0,7.0,95,0.00,,,0.05,0.000000,,2013-07-31 06:02:00,
2013-07-31 01:12:00,62.0,61.0,-100.00,South,177,2.0,7.0,95,0.00,,,0.05,0.000000,,2013-07-31 06:12:00,
2013-07-31 01:32:00,61.0,60.0,-100.00,SSW,209,2.0,6.0,97,0.00,,,0.05,1.000000,,2013-07-31 06:32:00,
2013-07-31 01:43:00,61.0,60.0,-100.00,SSW,209,2.0,6.0,97,0.00,,,0.05,1.000000,,2013-07-31 06:43:00,
2013-07-31 01:53:00,61.0,60.0,-100.00,SSW,209,2.0,6.0,97,0.00,,,0.05,1.000000,,2013-07-31 06:53:00,
2013-07-31 02:02:00,61.0,60.0,-100.00,SSW,209,2.0,6.0,97,0.00,,,0.05,1.000000,,2013-07-31 07:02:00,
2013-07-31 02:12:00,61.0,60.0,-100.00,SSW,209,2.0,6.0,97,0.00,,,0.05,1.000000,,2013-07-31 07:12:00,
2013-07-31 02:43:00,60.0,60.0,-100.00,SSW,209,2.0,5.0,99,0.00,,,0.05,1.000000,,2013-07-31 07:43:00,
2013-07-31 02:52:00,60.0,60.0,-100.00,SSW,209,2.0,5.0,99,0.00,,,0.05,1.000000,,2013-07-31 07:52:00,
2013-07-31 03:02:00,60.0,60.0,-100.00,SSW,209,2.0,5.0,99,0.00,,,0.05,1.000000,,2013-07-31 08:02:00,
2013-07-31 03:12:00,60.0,60.0,-100.00,SSW,209,2.0,5.0,99,0.00,,,0.05,1.000000,,2013-07-31 08:12:00,
2013-07-31 03:42:00,61.0,60.0,-100.00,WSW,254,3.0,7.0,97,0.00,,,-99.99,1.000000,,2013-07-31 08:42:00,
2013-07-31 03:53:00,61.0,60.0,-100.00,WSW,254,3.0,7.0,97,0.00,,,-99.99,1.000000,,2013-07-31 08:53:00,
2013-07-31 04:02:00,61.0,60.0,-100.00,WSW,254,3.0,7.0,97,0.00,,,-99.99,1.000000,,2013-07-31 09:02:00,
2013-07-31 04:12:00,61.0,60.0,-100.00,WSW,254,3.0,7.0,97,0.00,,,-99.99,1.000000,,2013-07-31 09:12:00,
2013-07-31 04:33:00,60.0,59.0,-100.00,West,273,3.0,8.0,96,0.00,,,0.05,1.000000,,2013-07-31 09:33:00,
2013-07-31 04:44:00,60.0,59.0,-100.00,West,273,3.0,8.0,96,0.00,,,0.05,1.000000,,2013-07-31 09:44:00,
2013-07-31 04:52:00,60.0,59.0,-100.00,West,273,3.0,8.0,96,0.00,,,0.05,1.000000,,2013-07-31 09:52:00,
2013-07-31 05:02:00,60.0,59.0,-100.00,West,273,3.0,8.0,96,0.00,,,0.05,1.000000,,2013-07-31 10:02:00,
2013-07-31 05:12:00,60.0,59.0,-100.00,West,273,3.0,8.0,96,0.00,,,0.05,1.000000,,2013-07-31 10:12:00,
2013-07-31 05:32:00,58.0,58.0,-100.00,WSW,239,2.0,7.0,99,0.00,,,0.05,1.000000,,2013-07-31 10:32:00,
2013-07-31 05:44:00,58.0,58.0,-100.00,WSW,239,2.0,7.0,99,0.00,,,0.05,1.000000,,2013-07-31 10:44:00,
2013-07-31 05:52:00,58.0,58.0,-100.00,WSW,239,2.0,7.0,99,0.00,,,0.05,1.000000,,2013-07-31 10:52:00,
2013-07-31 06:03:00,58.0,58.0,-100.00,WSW,239,2.0,7.0,99,0.00,,,0.05,1.000000,,2013-07-31 11:03:00,
2013-07-31 06:12:00,58.0,58.0,-100.00,WSW,239,2.0,7.0,99,0.00,,,0.05,1.000000,,2013-07-31 11:12:00,
2013-07-31 06:33:00,58.0,58.0,-100.00,SW,228,2.0,6.0,100,0.00,,,0.05,5.000000,,2013-07-31 11:33:00,
2013-07-31 06:43:00,58.0,58.0,-100.00,SW,228,2.0,6.0,100,0.00,,,0.05,5.000000,,2013-07-31 11:43:00,
2013-07-31 06:53:00,58.0,58.0,-100.00,SW,228,2.0,6.0,100,0.00,,,0.05,5.000000,,2013-07-31 11:53:00,
2013-07-31 07:02:00,58.0,58.0,-100.00,SW,228,2.0,6.0,100,0.00,,,0.05,5.000000,,2013-07-31 12:02:00,
2013-07-31 07:12:00,58.0,58.0,-100.00,SW,228,2.0,6.0,100,0.00,,,0.05,5.000000,,2013-07-31 12:12:00,
2013-07-31 07:43:00,59.0,59.0,-100.00,SW,231,3.0,8.0,99,0.00,,,0.00,41.000000,,2013-07-31 12:43:00,
2013-07-31 07:53:00,59.0,59.0,-100.00,SW,231,3.0,8.0,99,0.00,,,0.00,41.000000,,2013-07-31 12:53:00,
2013-07-31 08:02:00,59.0,59.0,-100.00,SW,231,3.0,8.0,99,0.00,,,0.00,41.000000,,2013-07-31 13:02:00,
2013-07-31 08:12:00,59.0,59.0,-100.00,SW,231,3.0,8.0,99,0.00,,,0.00,41.000000,,2013-07-31 13:12:00,
2013-07-31 08:43:00,65.0,59.0,-100.00,WNW,287,5.0,10.0,82,0.00,,,0.00,276.000000,,2013-07-31 13:43:00,
2013-07-31 08:53:00,65.0,59.0,-100.00,WNW,287,5.0,10.0,82,0.00,,,0.00,276.000000,,2013-07-31 13:53:00,
2013-07-31 09:02:00,65.0,59.0,-100.00,WNW,287,5.0,10.0,82,0.00,,,0.00,276.000000,,2013-07-31 14:02:00,
2013-07-31 09:12:00,65.0,59.0,-100.00,WNW,287,5.0,10.0,82,0.00,,,0.00,276.000000,,2013-07-31 14:12:00,
2013-07-31 09:43:00,67.0,57.0,-100.00,WNW,294,8.0,14.0,70,0.00,,,0.00,453.000000,,2013-07-31 14:43:00,
2013-07-31 09:53:00,67.0,57.0,-100.00,WNW,294,8.0,14.0,70,0.00,,,0.00,453.000000,,2013-07-31 14:53:00,
2013-07-31 10:02:00,67.0,57.0,-100.00,WNW,294,8.0,14.0,70,0.00,,,0.00,453.000000,,2013-07-31 15:02:00,
2013-07-31 10:12:00,67.0,57.0,-100.00,WNW,294,8.0,14.0,70,0.00,,,0.00,453.000000,,2013-07-31 15:12:00,
2013-07-31 10:44:00,69.0,53.0,-100.00,WNW,302,10.0,17.0,56,0.00,,,0.00,610.000000,,2013-07-31 15:44:00,
2013-07-31 10:53:00,69.0,53.0,-100.00,WNW,302,10.0,17.0,56,0.00,,,0.00,610.000000,,2013-07-31 15:53:00,
2013-07-31 11:02:00,69.0,53.0,-100.00,WNW,302,10.0,17.0,56,0.00,,,0.00,610.000000,,2013-07-31 16:02:00,
2013-07-31 11:12:00,69.0,53.0,-100.00,WNW,302,10.0,17.0,56,0.00,,,0.00,610.000000,,2013-07-31 16:12:00,
2013-07-31 11:13:00,70.0,52.0,-100.00,WNW,288,8.0,18.0,53,0.00,,,0.00,674.000000,,2013-07-31 16:13:00,
2013-07-31 11:44:00,70.0,52.0,-100.00,WNW,288,8.0,18.0,53,0.00,,,0.00,674.000000,,2013-07-31 16:44:00,
2013-07-31 11:52:00,70.0,52.0,-100.00,WNW,288,8.0,18.0,53,0.00,,,0.00,674.000000,,2013-07-31 16:52:00,
2013-07-31 12:03:00,70.0,52.0,-100.00,WNW,288,8.0,18.0,53,0.00,,,0.00,674.000000,,2013-07-31 17:03:00,
2013-07-31 12:43:00,70.0,50.0,-100.00,WNW,294,11.0,17.0,50,0.00,,,0.00,701.000000,,2013-07-31 17:43:00,
2013-07-31 12:53:00,70.0,50.0,-100.00,WNW,294,11.0,17.0,50,0.00,,,0.00,701.000000,,2013-07-31 17:53:00,
2013-07-31 13:02:00,70.0,50.0,-100.00,WNW,294,11.0,17.0,50,0.00,,,0.00,701.000000,,2013-07-31 18:02:00,
2013-07-31 13:12:00,70.0,50.0,-100.00,WNW,294,11.0,17.0,50,0.00,,,0.00,701.000000,,2013-07-31 18:12:00,
2013-07-31 13:43:00,70.0,52.0,-100.00,WNW,296,10.0,19.0,53,0.00,,,0.00,597.000000,,2013-07-31 18:43:00,
2013-07-31 13:52:00,70.0,52.0,-100.00,WNW,296,10.0,19.0,53,0.00,,,0.00,597.000000,,2013-07-31 18:52:00,
2013-07-31 14:03:00,70.0,52.0,-100.00,WNW,296,10.0,19.0,53,0.00,,,0.00,597.000000,,2013-07-31 19:03:00,
2013-07-31 14:12:00,70.0,52.0,-100.00,WNW,296,10.0,19.0,53,0.00,,,0.00,597.000000,,2013-07-31 19:12:00,
2013-07-31 14:33:00,70.0,49.0,-100.00,WNW,295,11.0,19.0,47,0.00,,,0.00,791.000000,,2013-07-31 19:33:00,
2013-07-31 14:43:00,70.0,49.0,-100.00,WNW,295,11.0,19.0,47,0.00,,,0.00,791.000000,,2013-07-31 19:43:00,
2013-07-31 14:53:00,70.0,49.0,-100.00,WNW,295,11.0,19.0,47,0.00,,,0.00,791.000000,,2013-07-31 19:53:00,
2013-07-31 15:03:00,70.0,49.0,-100.00,WNW,295,11.0,19.0,47,0.00,,,0.00,791.000000,,2013-07-31 20:03:00,
2013-07-31 15:12:00,70.0,49.0,-100.00,WNW,295,11.0,19.0,47,0.00,,,0.00,791.000000,,2013-07-31 20:12:00,
2013-07-31 15:13:00,71.0,50.0,-100.00,WNW,301,10.0,19.0,47,0.00,,,0.00,559.000000,,2013-07-31 20:13:00,
2013-07-31 15:43:00,71.0,50.0,-100.00,WNW,301,10.0,19.0,47,0.00,,,0.00,559.000000,,2013-07-31 20:43:00,
2013-07-31 15:53:00,71.0,50.0,-100.00,WNW,301,10.0,19.0,47,0.00,,,0.00,559.000000,,2013-07-31 20:53:00,
2013-07-31 16:02:00,71.0,50.0,-100.00,WNW,301,10.0,19.0,47,0.00,,,0.00,559.000000,,2013-07-31 21:02:00,
2013-07-31 16:13:00,71.0,47.0,-100.00,WNW,301,11.0,21.0,42,0.00,,,0.00,621.000000,,2013-07-31 21:13:00,
2013-07-31 16:43:00,71.0,47.0,-100.00,WNW,301,11.0,21.0,42,0.00,,,0.00,621.000000,,2013-07-31 21:43:00,
2013-07-31 16:53:00,71.0,47.0,-100.00,WNW,301,11.0,21.0,42,0.00,,,0.00,621.000000,,2013-07-31 21:53:00,
2013-07-31 17:02:00,71.0,47.0,-100.00,WNW,301,11.0,21.0,42,0.00,,,0.00,621.000000,,2013-07-31 22:02:00,
2013-07-31 17:33:00,73.0,50.0,-100.00,WNW,288,10.0,20.0,44,0.00,,,0.00,543.000000,,2013-07-31 22:33:00,
2013-07-31 17:43:00,73.0,50.0,-100.00,WNW,288,10.0,20.0,44,0.00,,,0.00,543.000000,,2013-07-31 22:43:00,
2013-07-31 17:53:00,73.0,50.0,-100.00,WNW,288,10.0,20.0,44,0.00,,,0.00,543.000000,,2013-07-31 22:53:00,
2013-07-31 18:02:00,73.0,50.0,-100.00,WNW,288,10.0,20.0,44,0.00,,,0.00,543.000000,,2013-07-31 23:02:00,
2013-07-31 18:12:00,73.0,50.0,-100.00,WNW,288,10.0,20.0,44,0.00,,,0.00,543.000000,,2013-07-31 23:12:00,
2013-07-31 18:32:00,70.0,49.0,-100.00,WNW,296,10.0,20.0,47,0.00,,,0.00,386.000000,,2013-07-31 23:32:00,
2013-07-31 18:42:00,70.0,49.0,-100.00,WNW,296,10.0,20.0,47,0.00,,,0.00,386.000000,,2013-07-31 23:42:00,
2013-07-31 18:52:00,70.0,49.0,-100.00,WNW,296,10.0,20.0,47,0.00,,,0.00,386.000000,,2013-07-31 23:52:00,
2013-07-31 19:02:00,70.0,49.0,-100.00,WNW,296,10.0,20.0,47,0.00,,,0.00,386.000000,,2013-08-01 00:02:00,
2013-07-31 19:12:00,70.0,49.0,-100.00,WNW,296,10.0,20.0,47,0.00,,,0.00,386.000000,,2013-08-01 00:12:00,
2013-07-31 19:32:00,66.0,49.0,-100.00,WNW,299,11.0,24.0,54,0.00,,,0.00,162.000000,,2013-08-01 00:32:00,
2013-07-31 19:43:00,66.0,49.0,-100.00,WNW,299,11.0,24.0,54,0.00,,,0.00,162.000000,,2013-08-01 00:43:00,
2013-07-31 19:52:00,66.0,49.0,-100.00,WNW,299,11.0,24.0,54,0.00,,,0.00,162.000000,,2013-08-01 00:52:00,
2013-07-31 20:02:00,66.0,49.0,-100.00,WNW,299,11.0,24.0,54,0.00,,,0.00,162.000000,,2013-08-01 01:02:00,
2013-07-31 20:12:00,66.0,49.0,-100.00,WNW,299,11.0,24.0,54,0.00,,,0.00,162.000000,,2013-08-01 01:12:00,
2013-07-31 20:33:00,64.0,50.0,-100.00,NW,305,9.0,20.0,61,0.00,,,0.00,67.000000,,2013-08-01 01:33:00,
2013-07-31 20:43:00,64.0,50.0,-100.00,NW,305,9.0,20.0,61,0.00,,,0.00,67.000000,,2013-08-01 01:43:00,
2013-07-31 20:53:00,64.0,50.0,-100.00,NW,305,9.0,20.0,61,0.00,,,0.00,67.000000,,2013-08-01 01:53:00,
2013-07-31 21:02:00,64.0,50.0,-100.00,NW,305,9.0,20.0,61,0.00,,,0.00,67.000000,,2013-08-01 02:02:00,
2013-07-31 21:12:00,64.0,50.0,-100.00,NW,305,9.0,20.0,61,0.00,,,0.00,67.000000,,2013-08-01 02:12:00,
2013-07-31 21:32:00,61.0,48.0,-100.00,WNW,300,9.0,15.0,63,0.00,,,0.00,7.000000,,2013-08-01 02:32:00,
2013-07-31 21:43:00,61.0,48.0,-100.00,WNW,300,9.0,15.0,63,0.00,,,0.00,7.000000,,2013-08-01 02:43:00,
2013-07-31 21:53:00,61.0,48.0,-100.00,WNW,300,9.0,15.0,63,0.00,,,0.00,7.000000,,2013-08-01 02:53:00,
2013-07-31 22:02:00,61.0,48.0,-100.00,WNW,300,9.0,15.0,63,0.00,,,0.00,7.000000,,2013-08-01 03:02:00,
2013-07-31 22:12:00,61.0,48.0,-100.00,WNW,300,9.0,15.0,63,0.00,,,0.00,7.000000,,2013-08-01 03:12:00,
2013-07-31 22:32:00,59.0,49.0,-100.00,WNW,298,6.0,18.0,70,0.00,,,0.00,1.000000,,2013-08-01 03:32:00,
2013-07-31 22:43:00,59.0,49.0,-100.00,WNW,298,6.0,18.0,70,0.00,,,0.00,1.000000,,2013-08-01 03:43:00,
2013-07-31 22:53:00,59.0,49.0,-100.00,WNW,298,6.0,18.0,70,0.00,,,0.00,1.000000,,2013-08-01 03:53:00,
2013-07-31 23:03:00,59.0,49.0,-100.00,WNW,298,6.0,18.0,70,0.00,,,0.00,1.000000,,2013-08-01 04:03:00,
2013-07-31 23:12:00,59.0,49.0,-100.00,WNW,298,6.0,18.0,70,0.00,,,0.00,1.000000,,2013-08-01 04:12:00,
2013-07-31 23:13:00,57.0,50.0,-100.00,WNW,296,7.0,13.0,76,0.00,,,0.00,1.000000,,2013-08-01 04:13:00,
2013-07-31 23:43:00,57.0,50.0,-100.00,WNW,296,7.0,13.0,76,0.00,,,0.00,1.000000,,2013-08-01 04:43:00,
2013-07-31 23:53:00,57.0,50.0,-100.00,WNW,296,7.0,13.0,76,0.00,,,0.00,1.000000,,2013-08-01 04:53:00,